Time;durP1;ratioP1;P1;durP2;ratioP2;P2;SDS_P1;SDS_P2;PMS_P1;PMS_P2;Temp;Humidity;BMP_temperature;BMP_pressure;BME280_temperature;BME280_humidity;BME280_pressure;Samples;Min_cycle;Max_cycle;Signal;HPM_P1;HPM_P2
2022/03/25 00:01:57;;;;;;;;;31.50;25.50;;;;;20.33;27.40;102182.94;4974382;28;45358;-49
2022/03/25 00:04:23;;;;;;;;;36.00;31.25;;;;;20.33;27.49;102188.19;4974648;28;45246;-47
2022/03/25 00:06:48;;;;;;;;;33.25;31.25;;;;;20.32;27.39;102191.72;4974447;28;45465;-48
2022/03/25 00:09:13;;;;;;;;;40.50;33.50;;;;;20.32;27.66;102197.00;4974736;28;45234;-49
2022/03/25 00:11:40;;;;;;;;;46.00;35.00;;;;;20.31;27.36;102195.28;4974315;28;45326;-52
2022/03/25 00:14:05;;;;;;;;;35.25;29.75;;;;;20.31;27.86;102199.66;4974331;28;45479;-52
2022/03/25 00:16:31;;;;;;;;;34.25;31.00;;;;;20.31;27.93;102194.41;4974575;28;45646;-52
2022/03/25 00:18:57;;;;;;;;;34.50;29.00;;;;;20.30;27.57;102195.31;4973812;28;46413;-54
2022/03/25 00:21:22;;;;;;;;;29.75;25.00;;;;;20.30;27.60;102197.94;4973282;28;46827;-54
2022/03/25 00:23:47;;;;;;;;;34.50;30.75;;;;;20.29;27.47;102196.22;4974358;28;45355;-51
2022/03/25 00:26:13;;;;;;;;;33.33;30.67;;;;;20.28;27.80;102195.38;4974332;28;45429;-49
2022/03/25 00:28:39;;;;;;;;;42.33;33.67;;;;;20.29;27.90;102186.56;4973829;28;50631;-54
2022/03/25 00:31:07;;;;;;;;;38.25;29.50;;;;;20.28;27.47;102199.78;4974064;28;45461;-52
2022/03/25 00:33:39;;;;;;;;;38.00;30.50;;;;;20.28;27.71;102189.25;4974200;28;45337;-51
2022/03/25 00:36:05;;;;;;;;;38.50;29.25;;;;;20.27;27.69;102193.66;4974257;28;45555;-51
2022/03/25 00:38:30;;;;;;;;;34.50;28.25;;;;;20.26;27.33;102191.06;4973821;28;45208;-52
2022/03/25 00:40:55;;;;;;;;;30.75;27.00;;;;;20.26;27.42;102194.56;4973754;28;45359;-52
2022/03/25 00:43:22;;;;;;;;;37.75;29.50;;;;;20.26;27.41;102193.72;4974033;28;45331;-54
2022/03/25 00:45:48;;;;;;;;;29.75;27.00;;;;;20.25;27.85;102190.19;4974419;28;45642;-52
2022/03/25 00:48:14;;;;;;;;;27.50;25.00;;;;;20.26;27.81;102191.06;4974004;28;45905;-51
2022/03/25 00:50:40;;;;;;;;;33.50;28.75;;;;;20.24;27.96;102189.34;4972675;28;45632;-54
2022/03/25 00:53:06;;;;;;;;;34.75;25.50;;;;;20.24;27.66;102193.72;4973852;28;45450;-46
2022/03/25 00:55:31;;;;;;;;;30.50;28.00;;;;;20.23;27.69;102189.38;4974168;28;45292;-53
2022/03/25 00:57:58;;;;;;;;;34.75;30.75;;;;;20.23;27.77;102186.75;4973733;28;45401;-51
2022/03/25 01:00:24;;;;;;;;;29.75;26.75;;;;;20.23;27.40;102192.00;4973732;28;45516;-47
2022/03/25 01:02:49;;;;;;;;;35.25;29.00;;;;;20.22;27.39;102185.06;4973770;28;45312;-50
2022/03/25 01:05:14;;;;;;;;;28.00;24.50;;;;;20.23;27.26;102197.28;4974204;28;45412;-53
2022/03/25 01:07:40;;;;;;;;;33.50;26.75;;;;;20.22;27.65;102190.31;4973643;28;45361;-50
2022/03/25 01:10:06;;;;;;;;;25.75;23.25;;;;;20.23;27.90;102186.75;4973397;28;45351;-45
2022/03/25 01:12:31;;;;;;;;;30.50;27.00;;;;;20.22;27.51;102185.91;4973654;28;45299;-47
2022/03/25 01:14:57;;;;;;;;;30.50;25.75;;;;;20.21;27.54;102178.06;4973840;28;45663;-52
2022/03/25 01:17:22;;;;;;;;;31.00;27.75;;;;;20.22;27.42;102195.59;4973148;28;45235;-51
2022/03/25 01:19:47;;;;;;;;;28.00;24.00;;;;;20.22;27.85;102185.91;4973720;28;45259;-53
2022/03/25 01:22:13;;;;;;;;;33.00;27.75;;;;;20.22;27.46;102182.41;4973367;28;45358;-45
2022/03/25 01:24:39;;;;;;;;;29.25;24.00;;;;;20.21;27.63;102183.31;4973604;28;45551;-47
2022/03/25 01:27:04;;;;;;;;;32.00;28.00;;;;;20.21;27.88;102183.31;4973199;28;45478;-50
2022/03/25 01:29:29;;;;;;;;;22.50;22.25;;;;;20.21;27.44;102167.53;4973252;28;45786;-49
2022/03/25 01:31:55;;;;;;;;;25.75;23.25;;;;;20.20;27.84;102166.66;4973563;28;45371;-50
2022/03/25 01:34:21;;;;;;;;;37.75;29.00;;;;;20.20;27.77;102169.28;4975957;28;45346;-49
2022/03/25 01:36:46;;;;;;;;;27.75;20.25;;;;;20.20;28.08;102166.66;4975895;28;58893;-45
2022/03/25 01:39:12;;;;;;;;;30.25;24.50;;;;;20.20;27.84;102165.81;4976110;28;45386;-48
2022/03/25 01:41:38;;;;;;;;;28.25;26.00;;;;;20.20;27.44;102163.19;4976312;28;45390;-47
2022/03/25 01:44:04;;;;;;;;;29.00;24.50;;;;;20.19;27.76;102162.28;4976477;28;45505;-51
2022/03/25 01:46:30;;;;;;;;;28.50;22.75;;;;;20.19;27.99;102161.44;4976063;28;46296;-50
2022/03/25 01:48:56;;;;;;;;;23.50;23.00;;;;;20.19;27.67;102156.19;4976145;28;45366;-50
2022/03/25 01:51:28;;;;;;;;;27.00;21.75;;;;;20.20;27.46;102155.28;4976274;28;45249;-45
2022/03/25 01:53:54;;;;;;;;;32.25;26.75;;;;;20.18;27.54;102150.03;4976505;28;45365;-49
2022/03/25 01:56:22;;;;;;;;;27.25;26.25;;;;;20.18;27.34;102157.09;4976359;28;46041;-49
2022/03/25 01:58:48;;;;;;;;;29.75;26.75;;;;;20.18;27.67;102155.31;4975245;28;45891;-46
2022/03/25 02:01:14;;;;;;;;;24.25;21.75;;;;;20.18;27.70;102159.72;4976102;28;45370;-50
2022/03/25 02:03:39;;;;;;;;;28.50;23.00;;;;;20.17;27.75;102158.88;4976242;28;45339;-47
2022/03/25 02:06:04;;;;;;;;;20.75;20.75;;;;;20.18;27.74;102157.09;4974526;28;47201;-46
2022/03/25 02:08:30;;;;;;;;;24.25;24.25;;;;;20.18;27.47;102157.09;4975812;28;45272;-47
2022/03/25 02:10:58;;;;;;;;;26.00;23.50;;;;;20.16;27.67;102149.25;4976043;28;45315;-44
2022/03/25 02:13:23;;;;;;;;;27.50;24.25;;;;;20.17;27.58;102155.38;4976270;28;45502;-46
2022/03/25 02:15:49;;;;;;;;;25.00;21.50;;;;;20.16;27.58;102149.25;4974833;28;47007;-50
2022/03/25 02:18:18;;;;;;;;;29.25;23.50;;;;;20.16;28.08;102153.66;4975498;28;45275;-52
2022/03/25 02:20:44;;;;;;;;;25.75;22.75;;;;;20.17;27.58;102155.38;4975747;28;45262;-52
2022/03/25 02:23:10;;;;;;;;;28.00;24.50;;;;;20.16;27.41;102156.28;4975935;28;45391;-44
2022/03/25 02:25:37;;;;;;;;;24.50;20.25;;;;;20.15;27.93;102146.66;4975537;28;46346;-54
2022/03/25 02:28:04;;;;;;;;;18.50;17.00;;;;;20.16;27.66;102151.88;4975607;28;45926;-53
2022/03/25 02:30:31;;;;;;;;;26.00;22.75;;;;;20.16;27.85;102149.25;4975780;28;45345;-47
2022/03/25 02:33:00;;;;;;;;;24.00;22.75;;;;;20.16;27.65;102158.91;4975905;28;45541;-50
2022/03/25 02:35:42;;;;;;;;;21.00;20.50;;;;;20.15;27.58;102154.56;4975457;28;46346;-54
2022/03/25 02:38:09;;;;;;;;;26.00;22.50;;;;;20.15;27.51;102160.69;4975487;28;46001;-52
2022/03/25 02:40:35;;;;;;;;;26.00;19.25;;;;;20.15;27.77;102157.19;4975587;28;45241;-53
2022/03/25 02:43:01;;;;;;;;;20.00;19.25;;;;;20.14;27.88;102161.59;4975736;28;45450;-50
2022/03/25 02:45:27;;;;;;;;;26.75;21.75;;;;;20.14;27.87;102161.59;4974829;28;45412;-53
2022/03/25 02:47:52;;;;;;;;;19.50;18.50;;;;;20.15;27.95;102162.44;4975660;28;45306;-49
2022/03/25 02:50:18;;;;;;;;;24.75;20.25;;;;;20.13;27.47;102159.00;4974410;28;45326;-53
2022/03/25 02:52:43;;;;;;;;;24.25;18.25;;;;;20.14;27.35;102168.63;4974478;28;45371;-46
2022/03/25 02:55:09;;;;;;;;;22.50;18.25;;;;;20.13;27.96;102165.16;4975308;28;45924;-49
2022/03/25 02:57:36;;;;;;;;;21.50;20.25;;;;;20.12;27.96;102165.22;4975397;28;45449;-48
2022/03/25 03:00:04;;;;;;;;;24.25;21.75;;;;;20.13;27.96;102166.91;4975431;28;45292;-49
2022/03/25 03:02:29;;;;;;;;;20.75;20.50;;;;;20.12;27.98;102167.84;4975461;28;45295;-44
2022/03/25 03:04:55;;;;;;;;;25.00;20.50;;;;;20.13;27.63;102165.16;4975212;28;45287;-45
2022/03/25 03:07:21;;;;;;;;;27.50;23.00;;;;;20.12;28.00;102167.84;4974300;28;45497;-52
2022/03/25 03:09:46;;;;;;;;;29.00;19.75;;;;;20.11;27.80;102160.84;4975367;28;45408;-49
2022/03/25 03:12:13;;;;;;;;;26.50;18.50;;;;;20.12;27.90;102159.94;4975463;28;45299;-47
2022/03/25 03:14:38;;;;;;;;;21.50;17.75;;;;;20.11;27.69;102166.97;4975004;28;46645;-51
2022/03/25 03:17:04;;;;;;;;;23.75;21.25;;;;;20.11;27.50;102163.47;4973536;28;45696;-54
2022/03/25 03:19:31;;;;;;;;;24.75;20.25;;;;;20.11;28.03;102160.84;4975342;28;45332;-49
2022/03/25 03:21:56;;;;;;;;;23.00;21.00;;;;;20.11;27.80;102166.13;4975168;28;45223;-52
2022/03/25 03:24:21;;;;;;;;;22.00;19.75;;;;;20.10;27.66;102159.13;4975197;28;46225;-49
2022/03/25 03:26:47;;;;;;;;;20.00;18.75;;;;;20.10;27.99;102165.22;4974910;28;45334;-49
2022/03/25 03:29:13;;;;;;;;;27.25;20.50;;;;;20.10;27.92;102156.50;4975113;28;45162;-47
2022/03/25 03:31:38;;;;;;;;;22.00;20.50;;;;;20.10;27.61;102153.88;4975023;28;45272;-47
2022/03/25 03:34:04;;;;;;;;;26.75;21.75;;;;;20.08;27.88;102152.13;4974835;28;45996;-49
2022/03/25 03:36:29;;;;;;;;;18.25;15.00;;;;;20.11;28.16;102160.84;4974880;28;45386;-47
2022/03/25 03:38:54;;;;;;;;;27.00;22.25;;;;;20.09;27.63;102152.97;4975355;28;45422;-46
2022/03/25 03:41:20;;;;;;;;;23.50;21.00;;;;;20.09;27.76;102158.25;4975087;28;45228;-47
2022/03/25 03:43:45;;;;;;;;;19.75;18.75;;;;;20.09;27.82;102155.63;4973381;28;48263;-43
2022/03/25 03:46:10;;;;;;;;;23.00;19.50;;;;;20.08;27.75;102157.41;4974616;28;45280;-47
2022/03/25 03:48:36;;;;;;;;;21.50;20.25;;;;;20.08;27.74;102144.25;4974866;28;45353;-47
2022/03/25 03:51:01;;;;;;;;;21.25;17.75;;;;;20.08;27.90;102146.00;4974939;28;45490;-43
2022/03/25 03:53:27;;;;;;;;;26.25;18.00;;;;;20.07;27.72;102149.53;4974860;28;46411;-50
2022/03/25 03:55:52;;;;;;;;;21.25;17.50;;;;;20.07;27.74;102145.16;4989755;28;45375;-45
2022/03/25 03:58:18;;;;;;;;;19.50;18.50;;;;;20.07;27.61;102149.53;4973471;28;45530;-43
2022/03/25 04:00:43;;;;;;;;;21.75;18.25;;;;;20.08;28.27;102151.25;4974676;28;45315;-44
2022/03/25 04:03:08;;;;;;;;;24.25;19.00;;;;;20.07;27.70;102155.69;4974384;28;46026;-49
2022/03/25 04:05:34;;;;;;;;;19.50;17.50;;;;;20.07;28.09;102163.56;4974566;28;45310;-49
2022/03/25 04:07:59;;;;;;;;;20.50;18.00;;;;;20.06;28.16;102156.59;4974650;28;45276;-49
2022/03/25 04:10:25;;;;;;;;;22.75;21.00;;;;;20.07;27.98;102158.31;4975015;28;45449;-47
2022/03/25 04:12:50;;;;;;;;;19.75;19.00;;;;;20.07;27.92;102160.06;4974276;28;46518;-49
2022/03/25 04:15:16;;;;;;;;;19.00;17.25;;;;;20.06;28.21;102161.00;4974306;28;45232;-49
2022/03/25 04:17:43;;;;;;;;;22.75;19.00;;;;;20.05;27.68;102157.50;4974338;28;45419;-42
2022/03/25 04:20:11;;;;;;;;;22.75;19.50;;;;;20.05;28.03;102152.22;4974577;28;45386;-48
2022/03/25 04:22:37;;;;;;;;;18.25;16.50;;;;;20.07;27.98;102155.69;4974205;28;46698;-47
2022/03/25 04:25:05;;;;;;;;;22.50;19.00;;;;;20.06;28.02;102159.22;4974219;28;45346;-43
2022/03/25 04:27:31;;;;;;;;;20.25;17.75;;;;;20.06;28.05;102159.22;4974441;28;45252;-42
2022/03/25 04:29:56;;;;;;;;;21.75;16.50;;;;;20.08;28.30;102161.78;4974793;28;45504;-46
2022/03/25 04:32:22;;;;;;;;;19.50;18.50;;;;;20.07;27.83;102160.94;4974039;28;47099;-49
2022/03/25 04:34:47;;;;;;;;;21.50;18.25;;;;;20.07;28.41;102160.94;4974146;28;45249;-51
2022/03/25 04:37:12;;;;;;;;;19.00;18.00;;;;;20.06;28.40;102159.22;4973918;28;47265;-49
2022/03/25 04:39:39;;;;;;;;;21.25;18.00;;;;;20.06;27.97;102159.22;4974305;28;45235;-48
2022/03/25 04:42:04;;;;;;;;;22.50;17.75;;;;;20.05;28.00;102160.13;4973844;28;46214;-51
2022/03/25 04:44:29;;;;;;;;;18.00;18.00;;;;;20.06;28.47;102169.75;4973771;28;45276;-47
2022/03/25 04:46:56;;;;;;;;;19.25;17.25;;;;;20.06;27.87;102164.47;4974418;28;45324;-48
2022/03/25 04:49:22;;;;;;;;;19.75;17.00;;;;;20.06;28.13;102168.91;4974182;28;45548;-46
2022/03/25 04:51:48;;;;;;;;;19.25;17.50;;;;;20.06;28.09;102174.16;4973632;28;46361;-47
2022/03/25 04:54:13;;;;;;;;;24.50;22.00;;;;;20.06;28.47;102175.00;4973870;28;45451;-46
2022/03/25 04:56:39;;;;;;;;;16.75;16.25;;;;;20.04;28.58;102171.56;4973779;28;45446;-46
2022/03/25 04:59:04;;;;;;;;;21.50;17.75;;;;;20.05;28.13;102178.53;4974097;28;45374;-43
2022/03/25 05:01:29;;;;;;;;;18.50;17.50;;;;;20.05;28.41;102183.81;4973654;28;54200;-48
2022/03/25 05:03:55;;;;;;;;;17.25;15.25;;;;;20.05;27.86;102177.69;4972770;28;45340;-50
2022/03/25 05:06:20;;;;;;;;;23.00;17.50;;;;;20.05;28.19;102188.22;4973815;28;45307;-47
2022/03/25 05:08:45;;;;;;;;;23.00;19.25;;;;;20.04;28.50;102182.09;4974192;28;45299;-43
2022/03/25 05:11:11;;;;;;;;;7.00;6.25;;;;;20.03;28.30;102185.63;4976649;28;46134;-45
2022/03/25 05:13:36;;;;;;;;;20.50;17.25;;;;;20.04;28.49;102187.34;4976737;28;45278;-43
2022/03/25 05:16:02;;;;;;;;;24.75;18.00;;;;;20.04;28.02;102184.72;4975261;28;45253;-48
2022/03/25 05:18:27;;;;;;;;;18.00;16.50;;;;;20.03;28.61;102185.63;4977032;28;45564;-52
2022/03/25 05:20:53;;;;;;;;;19.00;17.75;;;;;20.03;28.04;102188.25;4976446;28;46069;-51
2022/03/25 05:23:19;;;;;;;;;22.50;21.75;;;;;20.03;28.16;102180.34;4976434;28;45258;-52
2022/03/25 05:25:44;;;;;;;;;17.00;14.50;;;;;20.02;28.39;102186.53;4976578;28;45378;-53
2022/03/25 05:28:09;;;;;;;;;20.50;19.00;;;;;20.02;28.15;102188.31;4976744;28;45273;-44
2022/03/25 05:30:35;;;;;;;;;22.00;18.00;;;;;20.01;28.32;102182.16;4976250;28;45956;-50
2022/03/25 05:33:01;;;;;;;;;17.50;17.50;;;;;20.01;28.39;102187.44;4975402;28;45403;-46
2022/03/25 05:35:29;;;;;;;;;20.25;17.75;;;;;20.02;28.21;102186.53;4976929;28;45794;-43
2022/03/25 05:37:55;;;;;;;;;17.50;17.00;;;;;20.02;28.61;102183.91;4976570;28;45538;-52
2022/03/25 05:40:23;;;;;;;;;23.50;17.75;;;;;20.01;28.38;102190.06;4976189;28;45346;-42
2022/03/25 05:42:49;;;;;;;;;20.00;17.00;;;;;20.01;28.64;102190.06;4976207;28;45766;-44
2022/03/25 05:45:17;;;;;;;;;20.00;19.00;;;;;20.00;28.12;102191.00;4976239;28;45239;-46
2022/03/25 05:47:42;;;;;;;;;23.25;19.50;;;;;20.00;28.33;102196.28;4976351;28;45873;-42
2022/03/25 05:50:09;;;;;;;;;22.00;17.25;;;;;20.01;28.46;102190.06;4976126;28;45818;-50
2022/03/25 05:52:35;;;;;;;;;17.25;16.00;;;;;20.00;27.99;102191.00;4974857;28;45261;-50
2022/03/25 05:55:01;;;;;;;;;23.25;18.00;;;;;20.01;28.66;102192.69;4976507;28;45291;-49
2022/03/25 05:57:26;;;;;;;;;18.50;17.50;;;;;20.00;28.23;102193.63;4976203;28;45326;-43
2022/03/25 05:59:52;;;;;;;;;43.50;34.25;;;;;19.95;27.91;102198.16;4975875;28;46059;-49
2022/03/25 06:02:17;;;;;;;;;48.25;39.75;;;;;19.81;27.19;102200.31;4975742;28;45320;-46
2022/03/25 06:04:43;;;;;;;;;57.00;43.33;;;;;19.64;26.90;102196.44;4975804;28;45226;-47
2022/03/25 06:07:10;;;;;;;;;43.75;38.00;;;;;19.44;27.14;102200.53;4976180;28;45525;-45
2022/03/25 06:09:35;;;;;;;;;51.00;40.50;;;;;19.27;27.39;102205.41;4975784;28;46223;-50
2022/03/25 06:12:01;;;;;;;;;58.50;43.75;;;;;19.10;27.25;102200.59;4976132;28;45293;-48
2022/03/25 06:14:26;;;;;;;;;55.00;43.25;;;;;18.96;27.35;102206.25;4975863;28;45326;-50
2022/03/25 06:16:52;;;;;;;;;53.25;42.25;;;;;18.82;27.15;102212.69;4975742;28;45343;-50
2022/03/25 06:19:17;;;;;;;;;59.00;44.00;;;;;18.74;27.38;102219.06;4975002;28;45297;-53
2022/03/25 06:21:43;;;;;;;;;51.75;42.75;;;;;18.65;27.45;102217.53;4975358;28;45431;-49
2022/03/25 06:24:09;;;;;;;;;58.25;44.00;;;;;18.56;27.45;102221.25;4974522;28;45803;-48
2022/03/25 06:26:34;;;;;;;;;52.25;40.00;;;;;18.49;27.50;102220.53;4975726;28;45464;-48
2022/03/25 06:29:00;;;;;;;;;54.00;42.00;;;;;18.41;27.76;102217.22;4975727;28;45498;-46
2022/03/25 06:31:25;;;;;;;;;53.50;42.75;;;;;18.36;27.55;102227.84;4975580;28;45484;-45
2022/03/25 06:33:50;;;;;;;;;56.33;44.33;;;;;18.29;27.70;102228.03;4975092;28;52614;-47
2022/03/25 06:36:16;;;;;;;;;55.25;44.25;;;;;18.21;27.66;102226.44;4975651;28;45363;-49
2022/03/25 06:38:42;;;;;;;;;58.25;43.75;;;;;18.16;27.78;102227.44;4975245;28;46073;-47
2022/03/25 06:41:09;;;;;;;;;58.75;44.50;;;;;18.12;27.69;102226.66;4975174;28;45449;-48
2022/03/25 06:43:35;;;;;;;;;54.75;43.25;;;;;18.05;27.79;102230.31;4975781;28;45243;-44
2022/03/25 06:46:01;;;;;;;;;50.00;38.25;;;;;18.00;27.81;102230.41;4975872;28;45470;-50
2022/03/25 06:48:26;;;;;;;;;58.00;43.75;;;;;17.96;27.70;102230.47;4973800;28;47247;-50
2022/03/25 06:50:53;;;;;;;;;56.00;45.00;;;;;17.91;27.88;102234.06;4975204;28;45422;-48
2022/03/25 06:53:18;;;;;;;;;59.50;43.75;;;;;17.89;27.87;102242.88;4975458;28;45328;-43
2022/03/25 06:55:44;;;;;;;;;55.75;44.00;;;;;17.85;27.82;102242.06;4975308;28;45433;-43
2022/03/25 06:58:11;;;;;;;;;58.25;44.50;;;;;17.83;27.87;102245.63;4974907;28;46886;-47
2022/03/25 07:00:37;;;;;;;;;57.75;43.75;;;;;17.80;28.32;102243.94;4975118;28;45761;-48
2022/03/25 07:03:04;;;;;;;;;56.75;43.00;;;;;17.78;27.82;102246.59;4975488;28;45473;-54
2022/03/25 07:05:30;;;;;;;;;56.25;43.25;;;;;17.76;28.16;102247.53;4975355;28;45348;-48
2022/03/25 07:07:56;;;;;;;;;54.50;42.00;;;;;17.82;28.38;102252.63;4974984;28;46932;-47
2022/03/25 07:10:23;;;;;;;;;51.25;41.25;;;;;17.97;28.41;102240.13;4975032;28;45496;-50
2022/03/25 07:12:51;;;;;;;;;50.50;35.50;;;;;18.13;28.60;102245.88;4975256;28;45307;-47
2022/03/25 07:15:16;;;;;;;;;49.75;37.00;;;;;18.26;28.42;102246.44;4975486;28;45619;-45
2022/03/25 07:17:43;;;;;;;;;49.50;39.00;;;;;18.38;28.58;102248.78;4974951;28;46098;-45
2022/03/25 07:20:10;;;;;;;;;47.50;33.75;;;;;18.49;28.50;102245.94;4973774;28;45373;-48
2022/03/25 07:22:36;;;;;;;;;42.50;35.75;;;;;18.60;28.48;102250.91;4975451;28;45540;-48
2022/03/25 07:25:02;;;;;;;;;48.75;36.50;;;;;18.69;28.67;102248.03;4974042;28;45497;-50
2022/03/25 07:27:27;;;;;;;;;49.75;36.75;;;;;18.75;28.44;102254.91;4975019;28;46598;-49
2022/03/25 07:29:53;;;;;;;;;40.25;34.00;;;;;18.83;28.51;102259.06;4974784;28;45422;-46
2022/03/25 07:32:18;;;;;;;;;43.67;34.67;;;;;18.90;28.34;102258.94;4974733;28;45394;-50
2022/03/25 07:34:43;;;;;;;;;44.00;34.75;;;;;18.96;28.24;102262.28;4975133;28;45502;-49
2022/03/25 07:37:09;;;;;;;;;41.25;33.25;;;;;19.01;28.41;102262.19;4974702;28;46321;-48
2022/03/25 07:39:34;;;;;;;;;45.00;33.75;;;;;19.06;28.63;102265.53;4974914;28;45339;-46
2022/03/25 07:42:00;;;;;;;;;39.25;32.00;;;;;19.12;28.38;102270.63;4973447;28;45383;-46
2022/03/25 07:44:26;;;;;;;;;42.00;33.75;;;;;19.16;28.53;102274.88;4975002;28;45335;-45
2022/03/25 07:46:51;;;;;;;;;44.00;33.75;;;;;19.21;28.52;102268.66;4974355;28;46446;-44
2022/03/25 07:49:16;;;;;;;;;38.50;33.25;;;;;19.26;28.83;102279.91;4974448;28;45182;-46
2022/03/25 07:51:42;;;;;;;;;34.50;30.00;;;;;19.29;28.37;102278.03;4974665;28;45439;-45
2022/03/25 07:54:07;;;;;;;;;36.75;29.25;;;;;19.33;28.67;102284.09;4975056;28;45531;-44
2022/03/25 07:56:33;;;;;;;;;38.50;30.25;;;;;19.36;28.43;102283.16;4974476;28;45221;-46
2022/03/25 07:58:59;;;;;;;;;31.25;30.00;;;;;19.39;28.80;102281.28;4974568;28;45406;-48
2022/03/25 08:01:25;;;;;;;;;36.75;28.75;;;;;19.42;28.60;102281.22;4973268;28;45376;-44
2022/03/25 08:03:51;;;;;;;;;34.50;29.50;;;;;19.45;28.38;102283.78;4974796;28;45397;-45
2022/03/25 08:06:16;;;;;;;;;38.25;30.25;;;;;19.47;28.71;102286.34;4974242;28;46125;-44
2022/03/25 08:08:41;;;;;;;;;28.50;27.50;;;;;19.50;28.31;102282.75;4974245;28;45473;-44
2022/03/25 08:11:08;;;;;;;;;27.75;26.50;;;;;19.52;28.51;102283.59;4973199;28;45388;-44
2022/03/25 08:13:34;;;;;;;;;29.25;26.00;;;;;19.54;28.33;102290.53;4972648;28;45417;-49
2022/03/25 08:15:59;;;;;;;;;28.75;28.00;;;;;19.56;28.56;102290.50;4973008;28;47549;-46
2022/03/25 08:18:25;;;;;;;;;28.50;24.00;;;;;19.58;28.68;102283.41;4974220;28;45382;-47
2022/03/25 08:20:51;;;;;;;;;29.00;25.25;;;;;19.59;28.64;102291.28;4973072;28;45451;-49
2022/03/25 08:28:48;;;;;;;;;23.00;21.00;;;;;19.66;28.59;102289.34;4974147;28;45389;-50
2022/03/25 08:31:15;;;;;;;;;26.50;23.00;;;;;19.68;28.24;102289.28;4974176;28;45228;-50
2022/03/25 08:33:41;;;;;;;;;29.75;26.00;;;;;19.68;28.48;102279.59;4974440;28;45598;-46
2022/03/25 08:36:06;;;;;;;;;26.25;23.50;;;;;19.70;28.25;102287.47;4972911;28;47451;-50
2022/03/25 08:38:31;;;;;;;;;28.25;25.50;;;;;19.71;28.53;102286.56;4974027;28;45414;-47
2022/03/25 08:40:57;;;;;;;;;20.75;19.75;;;;;19.73;28.53;102288.25;4973932;28;45398;-43
2022/03/25 08:43:22;;;;;;;;;27.25;20.00;;;;;19.74;28.48;102289.97;4972086;28;45418;-44
2022/03/25 08:45:47;;;;;;;;;20.00;18.25;;;;;19.75;28.14;102290.81;4973691;28;47657;-46
2022/03/25 08:48:13;;;;;;;;;21.00;17.75;;;;;19.76;28.53;102287.28;4972382;28;45439;-44
2022/03/25 08:50:38;;;;;;;;;18.75;17.00;;;;;19.77;28.35;102292.50;4973108;28;45500;-44
2022/03/25 08:53:05;;;;;;;;;23.00;20.75;;;;;19.80;28.21;102290.69;4974116;28;45464;-44
2022/03/25 08:55:31;;;;;;;;;22.25;21.00;;;;;19.81;28.45;102289.78;4972208;28;48383;-44
2022/03/25 08:57:57;;;;;;;;;24.75;20.00;;;;;19.82;28.33;102296.75;4973614;28;45471;-46
2022/03/25 09:00:22;;;;;;;;;21.50;21.50;;;;;19.82;28.45;102291.50;4973743;28;45359;-47
2022/03/25 09:02:48;;;;;;;;;23.25;18.25;;;;;19.84;28.16;102287.06;4973750;28;45512;-49
2022/03/25 09:05:14;;;;;;;;;24.25;18.75;;;;;19.85;28.11;102294.06;4973459;28;46225;-48
2022/03/25 09:07:40;;;;;;;;;24.00;20.25;;;;;19.87;28.45;102292.28;4973835;28;45397;-51
2022/03/25 09:10:08;;;;;;;;;24.50;18.50;;;;;19.87;28.42;102289.66;4973836;28;45445;-45
2022/03/25 09:12:34;;;;;;;;;21.00;18.00;;;;;19.88;28.56;102291.38;4973857;28;45478;-47
2022/03/25 09:15:01;;;;;;;;;23.00;19.00;;;;;19.88;27.98;102286.97;4973401;28;45453;-50
2022/03/25 09:17:26;;;;;;;;;20.75;19.25;;;;;19.91;27.77;102291.25;4973243;28;45952;-48
2022/03/25 09:19:55;;;;;;;;;20.25;18.75;;;;;19.91;27.95;102293.88;4973612;28;45248;-48
2022/03/25 09:22:20;;;;;;;;;22.50;18.75;;;;;19.92;28.28;102291.22;4972416;28;45284;-44
2022/03/25 09:24:46;;;;;;;;;23.50;19.25;;;;;19.93;27.95;102294.72;4973386;28;46419;-44
2022/03/25 09:27:11;;;;;;;;;19.25;19.25;;;;;19.93;28.12;102290.31;4973553;28;45292;-46
2022/03/25 09:29:37;;;;;;;;;20.75;19.75;;;;;19.95;28.18;102281.53;4973418;28;45371;-44
2022/03/25 09:32:03;;;;;;;;;19.50;16.00;;;;;19.96;28.12;102289.38;4973364;28;45422;-46
2022/03/25 09:37:13;;;;;;;;;25.00;19.00;;;;;19.97;28.29;102284.94;4973517;28;45906;-47
2022/03/25 09:39:38;;;;;;;;;20.25;17.75;;;;;19.98;28.18;102282.28;4973277;28;45426;-46
2022/03/25 09:42:04;;;;;;;;;20.00;18.50;;;;;19.99;28.27;102284.03;4973341;28;45335;-44
2022/03/25 09:44:31;;;;;;;;;24.00;20.25;;;;;20.00;28.20;102280.47;4972921;28;45442;-44
2022/03/25 09:46:56;;;;;;;;;21.75;18.75;;;;;20.01;28.29;102276.91;4972997;28;45453;-49
2022/03/25 09:49:22;;;;;;;;;22.75;20.25;;;;;20.02;28.06;102286.53;4971803;28;45435;-48
2022/03/25 09:51:47;;;;;;;;;22.75;21.00;;;;;20.01;28.20;102282.19;4973229;28;45342;-47
2022/03/25 09:54:14;;;;;;;;;17.50;16.25;;;;;20.03;28.08;102285.63;4971998;28;46101;-50
2022/03/25 09:56:40;;;;;;;;;22.75;19.75;;;;;20.05;28.22;102286.44;4976140;28;45320;-48
2022/03/25 09:59:06;;;;;;;;;17.75;17.00;;;;;20.05;28.20;102294.34;4976224;28;45340;-47
2022/03/25 10:01:32;;;;;;;;;18.00;18.00;;;;;20.06;27.90;102289.97;4976235;28;45306;-47
2022/03/25 10:03:58;;;;;;;;;18.50;18.00;;;;;20.05;27.79;102281.19;4975836;28;46185;-45
2022/03/25 10:06:24;;;;;;;;;21.75;19.50;;;;;20.06;28.29;102285.53;4975948;28;45335;-47
2022/03/25 10:08:57;;;;;;;;;24.75;21.50;;;;;20.07;28.24;102282.00;4974775;28;45372;-45
2022/03/25 10:11:32;;;;;;;;;21.00;18.25;;;;;20.08;28.14;102278.47;4976182;28;45537;-44
2022/03/25 10:14:14;;;;;;;;;19.25;18.25;;;;;20.09;28.23;102274.06;4975690;28;46092;-43
2022/03/25 10:16:40;;;;;;;;;19.75;19.75;;;;;20.10;28.42;102277.56;4975689;28;45798;-43
2022/03/25 10:19:05;;;;;;;;;19.00;17.50;;;;;20.10;28.03;102275.78;4975917;28;45367;-44
2022/03/25 10:22:08;;;;;;;;;21.75;18.75;;;;;20.11;28.42;102269.63;4974347;28;50230;-46
2022/03/25 10:24:39;;;;;;;;;17.75;16.00;;;;;20.11;28.07;102271.41;4975331;28;45679;-43
2022/03/25 10:27:07;;;;;;;;;17.75;16.50;;;;;20.12;28.58;102268.72;4975765;28;46005;-44
2022/03/25 10:29:35;;;;;;;;;22.00;18.75;;;;;20.13;28.18;102274.81;4975718;28;45227;-43
2022/03/25 10:32:07;;;;;;;;;21.00;19.00;;;;;20.14;27.94;102271.28;4975884;28;45512;-44
2022/03/25 10:34:34;;;;;;;;;18.50;16.25;;;;;20.12;28.14;102273.97;4975418;28;46219;-45
2022/03/25 10:37:02;;;;;;;;;18.00;18.00;;;;;20.13;28.21;102265.16;4975485;28;45432;-44
2022/03/25 10:39:28;;;;;;;;;14.75;13.00;;;;;20.14;27.87;102268.66;4975478;28;45315;-45
2022/03/25 10:42:00;;;;;;;;;19.00;17.50;;;;;20.14;28.04;102272.16;4975526;28;45600;-47
2022/03/25 10:44:35;;;;;;;;;21.50;18.50;;;;;20.15;28.15;102268.63;4975301;28;46287;-50
2022/03/25 10:47:20;;;;;;;;;21.00;20.50;;;;;20.15;28.28;102262.47;4975374;28;45240;-46
2022/03/25 10:49:47;;;;;;;;;16.75;14.75;;;;;20.16;27.81;102267.72;4975819;28;45392;-46
2022/03/25 10:52:30;;;;;;;;;18.50;17.25;;;;;20.17;28.36;102265.94;4975949;28;45491;-49
2022/03/25 10:55:20;;;;;;;;;19.00;17.00;;;;;20.17;27.94;102260.66;4975301;28;46194;-50
2022/03/25 10:57:58;;;;;;;;;19.25;18.25;;;;;20.15;28.15;102263.34;4974222;28;45355;-48
2022/03/25 11:00:25;;;;;;;;;19.25;16.50;;;;;20.17;28.11;102263.28;4975370;28;45255;-47
2022/03/25 11:02:52;;;;;;;;;23.75;18.75;;;;;20.18;28.46;102267.66;4975327;28;45398;-44
2022/03/25 11:05:17;;;;;;;;;20.75;17.50;;;;;20.17;28.18;102261.53;4975030;28;47274;-49
2022/03/25 11:07:45;;;;;;;;;19.25;17.75;;;;;20.18;28.60;102263.25;4974957;28;45373;-44
2022/03/25 11:10:14;;;;;;;;;20.75;16.00;;;;;20.18;28.04;102262.38;4975213;28;45304;-45
2022/03/25 11:12:45;;;;;;;;;19.25;17.50;;;;;20.19;28.55;102264.97;4975453;28;45173;-45
2022/03/25 11:15:15;;;;;;;;;19.00;17.25;;;;;20.20;28.36;102258.78;4975046;28;46385;-44